Time;durP1;ratioP1;P1;durP2;ratioP2;P2;SDS_P1;SDS_P2;PMS_P1;PMS_P2;Temp;Humidity;BMP_temperature;BMP_pressure;BME280_temperature;BME280_humidity;BME280_pressure;Samples;Min_cycle;Max_cycle;Signal;HPM_P1;HPM_P2
2023/06/14 00:00:17;;;;;;;14.87;7.40;;;14.70;51.80;;;;;;5982497;24;20426;-64
2023/06/14 00:02:44;;;;;;;14.50;7.40;;;14.60;53.10;;;;;;5981745;24;20426;-64
2023/06/14 00:05:13;;;;;;;13.07;7.70;;;14.60;54.60;;;;;;5983854;24;20433;-64
2023/06/14 00:07:42;;;;;;;11.47;8.00;;;14.50;56.70;;;;;;5984196;24;20784;-64
2023/06/14 00:10:10;;;;;;;12.50;7.27;;;14.40;57.50;;;;;;5983577;24;20419;-64
2023/06/14 00:12:41;;;;;;;14.30;7.73;;;14.30;60.00;;;;;;5984175;24;20419;-64
2023/06/14 00:15:10;;;;;;;12.03;7.70;;;14.20;60.30;;;;;;5984314;24;20861;-64
2023/06/14 00:17:38;;;;;;;13.30;8.33;;;14.20;63.80;;;;;;5983631;24;20450;-64
2023/06/14 00:20:07;;;;;;;13.90;8.70;;;14.20;64.90;;;;;;5983717;24;20419;-64
2023/06/14 00:22:36;;;;;;;14.33;9.30;;;14.20;66.60;;;;;;5983956;24;20454;-64
2023/06/14 00:25:03;;;;;;;13.60;8.57;;;14.20;65.20;;;;;;5983531;24;20450;-64
2023/06/14 00:27:30;;;;;;;10.60;7.73;;;14.10;67.60;;;;;;5984120;24;20416;-64
2023/06/14 00:29:59;;;;;;;11.30;6.70;;;14.10;64.70;;;;;;5983894;24;20494;-64
2023/06/14 00:32:27;;;;;;;10.00;7.20;;;13.80;69.50;;;;;;5983904;24;20844;-64
2023/06/14 00:34:54;;;;;;;11.97;7.93;;;13.70;72.40;;;;;;5983662;24;20429;-64
2023/06/14 00:37:21;;;;;;;12.43;7.93;;;13.60;72.30;;;;;;5984046;24;20526;-64
2023/06/14 00:39:48;;;;;;;14.93;7.93;;;13.70;73.80;;;;;;5983398;24;20907;-64
2023/06/14 00:42:25;;;;;;;13.63;8.17;;;13.60;71.60;;;;;;5983612;24;20718;-64
2023/06/14 00:44:52;;;;;;;11.37;7.33;;;13.60;72.30;;;;;;5982861;24;20410;-64
2023/06/14 00:47:20;;;;;;;12.43;8.37;;;13.70;72.40;;;;;;5983740;24;20415;-64
2023/06/14 00:49:48;;;;;;;11.80;8.20;;;13.60;72.20;;;;;;5983713;24;20744;-64
2023/06/14 00:52:16;;;;;;;16.07;7.80;;;13.60;68.80;;;;;;5984024;24;20447;-64
2023/06/14 00:54:43;;;;;;;12.43;8.20;;;13.50;72.20;;;;;;5983224;24;20423;-64
2023/06/14 00:57:11;;;;;;;14.70;8.80;;;13.50;75.10;;;;;;5983574;24;20832;-64
2023/06/14 00:59:43;;;;;;;13.50;9.10;;;13.40;74.60;;;;;;5983860;24;20430;-64
2023/06/14 01:02:10;;;;;;;16.90;8.80;;;13.40;75.70;;;;;;5983896;24;20407;-64
2023/06/14 01:04:41;;;;;;;12.00;9.00;;;13.40;75.00;;;;;;5982694;24;20459;-64
2023/06/14 01:07:16;;;;;;;18.57;8.87;;;13.50;76.10;;;;;;5983130;24;20407;-64
2023/06/14 01:09:54;;;;;;;14.57;9.00;;;13.40;76.80;;;;;;5983730;24;20482;-64
2023/06/14 01:12:32;;;;;;;16.33;8.60;;;13.40;78.40;;;;;;5983717;24;20403;-64
2023/06/14 01:15:01;;;;;;;12.20;8.33;;;13.40;80.10;;;;;;5982099;24;20483;-64
2023/06/14 01:17:31;;;;;;;13.83;8.67;;;13.40;80.10;;;;;;5983287;24;20444;-64
2023/06/14 01:19:59;;;;;;;13.10;8.73;;;13.30;82.30;;;;;;5983399;24;20857;-64
2023/06/14 01:22:27;;;;;;;12.90;8.73;;;13.30;84.10;;;;;;5983601;24;20423;-64
2023/06/14 01:24:56;;;;;;;12.17;8.87;;;13.30;85.50;;;;;;5982697;24;20427;-64
2023/06/14 01:27:28;;;;;;;14.80;10.50;;;13.20;87.50;;;;;;5983329;24;20415;-64
2023/06/14 01:29:57;;;;;;;11.70;9.50;;;13.20;89.50;;;;;;5982943;24;20473;-64
2023/06/14 01:32:25;;;;;;;12.10;9.00;;;13.10;88.70;;;;;;5983498;24;20800;-64
2023/06/14 01:34:52;;;;;;;10.60;9.00;;;13.00;87.40;;;;;;5982702;24;20451;-64
2023/06/14 01:37:20;;;;;;;12.83;9.83;;;12.90;89.20;;;;;;5983114;24;20445;-64
2023/06/14 01:39:49;;;;;;;16.10;11.13;;;12.90;90.20;;;;;;5982625;24;20506;-64
2023/06/14 01:42:18;;;;;;;12.37;8.67;;;12.90;89.20;;;;;;5983279;24;20423;-64
2023/06/14 01:44:45;;;;;;;13.03;10.13;;;12.90;86.20;;;;;;5982562;24;20513;-64
2023/06/14 01:47:12;;;;;;;12.30;9.93;;;12.90;90.60;;;;;;5983081;24;20447;-64
2023/06/14 01:49:40;;;;;;;12.33;9.90;;;12.80;91.90;;;;;;5983205;24;20457;-64
2023/06/14 01:52:09;;;;;;;10.63;9.17;;;12.90;90.80;;;;;;5983544;24;20430;-64
2023/06/14 01:54:41;;;;;;;14.53;10.63;;;12.80;91.60;;;;;;5982411;24;20419;-64
2023/06/14 01:57:08;;;;;;;12.07;9.47;;;12.70;91.70;;;;;;5983425;24;20435;-64
2023/06/14 01:59:37;;;;;;;15.57;11.70;;;12.70;92.10;;;;;;5981990;24;20444;-64
2023/06/14 02:02:04;;;;;;;13.63;10.27;;;12.70;92.10;;;;;;5983215;24;20421;-64
2023/06/14 02:04:31;;;;;;;12.40;10.20;;;12.70;93.30;;;;;;5982389;24;20423;-64
2023/06/14 02:06:58;;;;;;;14.23;11.23;;;12.60;93.50;;;;;;5982588;24;20935;-64
2023/06/14 02:09:25;;;;;;;15.03;11.70;;;12.50;93.70;;;;;;5982790;24;20922;-64
2023/06/14 02:11:52;;;;;;;16.37;10.70;;;12.50;94.60;;;;;;5982799;24;20480;-64
2023/06/14 02:14:19;;;;;;;15.87;11.87;;;12.50;95.00;;;;;;5982714;24;20433;-64
2023/06/14 02:16:48;;;;;;;14.13;11.60;;;12.50;94.80;;;;;;5982995;24;20454;-64
2023/06/14 02:19:16;;;;;;;13.50;11.30;;;12.40;95.30;;;;;;5982416;24;20406;-64
2023/06/14 02:21:43;;;;;;;13.30;11.80;;;12.40;95.70;;;;;;5982905;24;20421;-64
2023/06/14 02:24:10;;;;;;;15.53;11.70;;;12.40;96.90;;;;;;5981729;24;20506;-64
2023/06/14 02:26:37;;;;;;;15.00;11.90;;;12.40;96.50;;;;;;5983161;24;20403;-63
2023/06/14 02:29:05;;;;;;;16.97;14.90;;;12.30;96.80;;;;;;5983136;24;20416;-64
2023/06/14 02:31:32;;;;;;;15.17;13.60;;;12.30;98.60;;;;;;5982625;24;20929;-63
2023/06/14 02:34:01;;;;;;;16.87;15.27;;;12.20;98.50;;;;;;5982786;24;20446;-63
2023/06/14 02:36:29;;;;;;;15.87;14.23;;;12.20;98.50;;;;;;5982543;24;20974;-63
2023/06/14 02:38:57;;;;;;;16.13;14.50;;;12.20;99.40;;;;;;5981884;24;20446;-64
2023/06/14 02:41:24;;;;;;;19.30;17.70;;;12.20;99.90;;;;;;5983048;24;20912;-63
2023/06/14 02:43:51;;;;;;;19.53;17.57;;;12.20;99.90;;;;;;5981569;24;20429;-64
2023/06/14 02:46:18;;;;;;;21.37;19.57;;;12.20;99.90;;;;;;5982341;24;20421;-63
2023/06/14 02:48:45;;;;;;;17.00;15.30;;;12.10;99.90;;;;;;5982878;24;20464;-63
2023/06/14 02:51:13;;;;;;;23.40;21.07;;;12.10;99.90;;;;;;5982557;24;20453;-64
2023/06/14 02:53:41;;;;;;;15.90;14.13;;;12.10;99.90;;;;;;5982182;24;20422;-63
2023/06/14 02:56:07;;;;;;;17.90;16.30;;;12.10;99.90;;;;;;5982661;24;20421;-64
2023/06/14 02:58:35;;;;;;;18.67;16.87;;;12.10;99.90;;;;;;5982706;24;20472;-63
2023/06/14 03:01:03;;;;;;;15.00;11.80;;;12.10;99.90;;;;;;5982590;24;20746;-63
2023/06/14 03:03:30;;;;;;;17.00;11.83;;;12.00;98.70;;;;;;5982276;24;20428;-63
2023/06/14 03:05:57;;;;;;;18.03;14.43;;;11.90;98.40;;;;;;5982820;24;20921;-63
2023/06/14 03:08:26;;;;;;;16.60;13.03;;;11.90;98.40;;;;;;5991810;24;20480;-63
2023/06/14 03:10:55;;;;;;;18.13;14.30;;;12.00;99.40;;;;;;5982639;24;20428;-65
2023/06/14 03:13:23;;;;;;;21.50;13.50;;;11.90;98.40;;;;;;5981662;24;20421;-65
2023/06/14 03:15:50;;;;;;;19.33;17.07;;;11.90;98.40;;;;;;5982495;24;20902;-65
2023/06/14 03:18:17;;;;;;;20.40;17.10;;;11.90;99.90;;;;;;5982198;24;20501;-65
2023/06/14 03:20:45;;;;;;;22.70;17.90;;;11.90;99.90;;;;;;5982808;24;20421;-66
2023/06/14 03:23:13;;;;;;;21.40;19.33;;;12.00;99.90;;;;;;5981832;24;20428;-65
2023/06/14 03:25:42;;;;;;;20.07;17.93;;;11.80;99.90;;;;;;5982370;24;20722;-67
2023/06/14 03:28:09;;;;;;;19.13;11.83;;;11.90;99.90;;;;;;5981945;24;20417;-66
2023/06/14 03:30:36;;;;;;;12.90;11.03;;;11.70;98.30;;;;;;5982589;24;20509;-65
2023/06/14 03:33:03;;;;;;;20.27;14.00;;;11.70;99.30;;;;;;5977901;24;20420;-65
2023/06/14 03:35:30;;;;;;;15.90;13.10;;;11.70;99.50;;;;;;5982873;24;20804;-65
2023/06/14 03:37:57;;;;;;;13.70;12.20;;;11.80;99.90;;;;;;5982377;24;20445;-65
2023/06/14 03:40:26;;;;;;;19.70;17.90;;;11.70;99.90;;;;;;5984301;24;20493;-65
2023/06/14 03:42:54;;;;;;;34.57;32.27;;;11.60;99.90;;;;;;5983964;24;20422;-65
2023/06/14 03:45:21;;;;;;;90.80;86.37;;;11.70;99.90;;;;;;5984656;24;20444;-65
2023/06/14 03:47:48;;;;;;;113.93;109.17;;;11.70;99.90;;;;;;5984188;24;20417;-65
2023/06/14 03:50:15;;;;;;;134.67;129.10;;;11.80;99.90;;;;;;5984573;24;20488;-65
2023/06/14 03:52:43;;;;;;;180.87;173.97;;;11.80;99.90;;;;;;5983558;24;20903;-65
2023/06/14 03:55:12;;;;;;;160.57;154.00;;;11.90;99.90;;;;;;5984536;24;20745;-65
2023/06/14 03:57:40;;;;;;;133.83;128.13;;;12.00;99.90;;;;;;5983910;24;20902;-65
2023/06/14 04:00:11;;;;;;;65.27;61.57;;;12.10;99.90;;;;;;5984393;24;20595;-65
2023/06/14 04:02:38;;;;;;;27.30;24.90;;;12.10;99.90;;;;;;5984266;24;20746;-65
2023/06/14 04:05:08;;;;;;;27.63;24.87;;;12.10;99.90;;;;;;5983770;24;20758;-65
2023/06/14 04:07:39;;;;;;;29.80;27.40;;;12.10;99.90;;;;;;5984146;24;20485;-65
2023/06/14 04:10:08;;;;;;;34.80;32.33;;;12.10;99.90;;;;;;5984161;24;20406;-65
2023/06/14 04:12:35;;;;;;;28.33;26.23;;;12.20;99.90;;;;;;5984427;24;20903;-66
2023/06/14 04:15:02;;;;;;;19.70;17.40;;;12.30;99.90;;;;;;5983317;24;20453;-65
2023/06/14 04:17:32;;;;;;;21.43;18.50;;;12.30;99.90;;;;;;5982826;24;20444;-65
2023/06/14 04:19:59;;;;;;;21.50;18.70;;;12.40;99.90;;;;;;5984275;24;20457;-65
2023/06/14 04:22:28;;;;;;;22.43;16.23;;;12.40;99.90;;;;;;5984270;24;20507;-65
2023/06/14 04:24:55;;;;;;;21.90;19.87;;;12.50;99.90;;;;;;5983216;24;20489;-65
2023/06/14 04:27:25;;;;;;;22.63;20.73;;;12.60;99.90;;;;;;5984417;24;20449;-65
2023/06/14 04:29:56;;;;;;;26.80;23.27;;;12.60;99.90;;;;;;5983663;24;20461;-65
2023/06/14 04:32:25;;;;;;;24.07;21.80;;;12.70;99.90;;;;;;5984429;24;20412;-65
2023/06/14 04:34:55;;;;;;;16.73;14.13;;;12.80;99.90;;;;;;5982844;24;20974;-65
2023/06/14 04:37:22;;;;;;;16.27;13.70;;;12.90;99.90;;;;;;5984303;24;20460;-65
2023/06/14 04:39:49;;;;;;;17.13;13.20;;;13.00;99.90;;;;;;5984013;24;20456;-65
2023/06/14 04:42:20;;;;;;;16.10;12.50;;;13.10;99.90;;;;;;5984209;24;20426;-65
2023/06/14 04:44:48;;;;;;;13.60;11.30;;;13.10;99.90;;;;;;5982856;24;20872;-67
2023/06/14 04:47:16;;;;;;;16.30;12.80;;;13.20;99.90;;;;;;5984167;24;20475;-67
2023/06/14 04:49:43;;;;;;;15.37;10.63;;;13.30;99.90;;;;;;5983273;24;20419;-67
2023/06/14 04:52:12;;;;;;;14.77;10.10;;;13.30;99.00;;;;;;5984133;24;20439;-67
2023/06/14 04:54:42;;;;;;;14.93;10.30;;;13.50;96.80;;;;;;5983383;24;20432;-67
2023/06/14 04:57:14;;;;;;;13.90;10.73;;;13.60;97.40;;;;;;5984226;24;20427;-67
2023/06/14 04:59:41;;;;;;;11.87;9.47;;;13.70;95.90;;;;;;5983988;24;20803;-67
2023/06/14 05:02:08;;;;;;;11.60;8.53;;;13.80;96.30;;;;;;5983710;24;20432;-67
2023/06/14 05:04:39;;;;;;;13.53;9.50;;;14.10;94.40;;;;;;5983450;24;20774;-67
2023/06/14 05:07:07;;;;;;;14.60;8.57;;;14.20;93.50;;;;;;5983593;24;20861;-67
2023/06/14 05:09:36;;;;;;;12.97;9.40;;;14.40;92.80;;;;;;5983520;24;20443;-65
2023/06/14 05:12:03;;;;;;;18.67;9.83;;;14.60;92.90;;;;;;5983916;24;20482;-65
2023/06/14 05:14:30;;;;;;;11.97;8.23;;;14.70;91.00;;;;;;5983221;24;20423;-65
2023/06/14 05:16:57;;;;;;;16.33;8.83;;;14.90;91.00;;;;;;5983939;24;20442;-65
2023/06/14 05:19:24;;;;;;;13.97;8.50;;;15.40;89.60;;;;;;5982192;24;20450;-66
2023/06/14 05:21:51;;;;;;;13.77;8.30;;;16.10;82.50;;;;;;5983279;24;20420;-65
2023/06/14 05:24:18;;;;;;;10.80;7.17;;;16.80;76.30;;;;;;5983102;24;20455;-65
2023/06/14 05:26:46;;;;;;;9.80;7.03;;;17.30;69.40;;;;;;5983357;24;20419;-66
2023/06/14 05:29:13;;;;;;;10.33;7.10;;;17.70;65.00;;;;;;5983581;24;20450;-65
2023/06/14 05:31:41;;;;;;;14.23;6.90;;;18.30;63.90;;;;;;5983728;24;20742;-65
2023/06/14 05:34:08;;;;;;;12.47;7.47;;;19.00;58.40;;;;;;5982334;24;20420;-65
2023/06/14 05:36:36;;;;;;;16.10;7.70;;;19.40;56.90;;;;;;5983258;24;20419;-65
2023/06/14 05:39:05;;;;;;;9.53;6.47;;;19.70;52.90;;;;;;5981889;24;20474;-66
2023/06/14 05:41:32;;;;;;;11.93;6.77;;;20.30;47.40;;;;;;5983591;24;20431;-65
2023/06/14 05:44:00;;;;;;;11.27;6.60;;;20.80;44.50;;;;;;5982580;24;20454;-66
2023/06/14 05:46:28;;;;;;;12.03;6.50;;;21.00;38.10;;;;;;5983157;24;20448;-65
2023/06/14 05:48:55;;;;;;;11.13;5.53;;;21.00;36.20;;;;;;5982594;24;20714;-65
2023/06/14 05:51:24;;;;;;;11.90;6.33;;;21.40;36.30;;;;;;5982918;24;20510;-66
2023/06/14 05:53:51;;;;;;;11.00;6.30;;;21.40;33.10;;;;;;5982246;24;20790;-65
2023/06/14 05:56:19;;;;;;;13.10;6.00;;;21.80;27.80;;;;;;5983241;24;20419;-65
2023/06/14 05:58:46;;;;;;;12.43;6.13;;;22.10;24.40;;;;;;5982820;24;20461;-65
2023/06/14 06:01:15;;;;;;;10.70;6.13;;;22.30;22.90;;;;;;5983153;24;20426;-65
2023/06/14 06:03:45;;;;;;;7.87;5.20;;;22.60;24.40;;;;;;5982505;24;20424;-65
2023/06/14 06:06:12;;;;;;;9.27;4.97;;;22.60;14.10;;;;;;5982617;24;20474;-65
2023/06/14 06:08:40;;;;;;;10.37;4.93;;;22.70;14.20;;;;;;5982593;24;20441;-65
2023/06/14 06:11:07;;;;;;;10.20;5.03;;;22.70;11.20;;;;;;5982998;24;20419;-65
2023/06/14 06:13:34;;;;;;;10.23;5.30;;;22.80;11.80;;;;;;5981911;24;20420;-65
2023/06/14 06:16:01;;;;;;;8.60;4.53;;;22.80;10.70;;;;;;5983040;24;20420;-65
2023/06/14 06:18:30;;;;;;;9.63;4.60;;;22.90;8.20;;;;;;5982772;24;20482;-65
2023/06/14 06:20:57;;;;;;;11.20;5.63;;;22.90;6.70;;;;;;5982921;24;20422;-65
2023/06/14 06:23:24;;;;;;;9.77;5.57;;;22.70;6.50;;;;;;5982465;24;20465;-66
2023/06/14 06:25:51;;;;;;;12.10;4.40;;;22.80;7.90;;;;;;5982547;24;20426;-65
2023/06/14 06:28:18;;;;;;;12.50;5.40;;;23.00;6.70;;;;;;5982832;24;20510;-64
2023/06/14 06:30:45;;;;;;;9.50;4.87;;;23.10;5.10;;;;;;5983266;24;20492;-64
2023/06/14 06:33:13;;;;;;;8.77;4.20;;;23.30;4.90;;;;;;5982346;24;20906;-64
2023/06/14 06:35:42;;;;;;;9.10;5.50;;;23.30;2.50;;;;;;5982687;24;21111;-65
2023/06/14 06:38:09;;;;;;;8.50;4.40;;;23.40;1.00;;;;;;5982839;24;20427;-64
2023/06/14 06:40:36;;;;;;;9.93;4.73;;;23.60;1.00;;;;;;5982826;24;20439;-64
2023/06/14 06:43:03;;;;;;;9.50;5.00;;;23.50;1.00;;;;;;5982224;24;20499;-64
2023/06/14 06:45:30;;;;;;;9.17;4.57;;;23.90;1.30;;;;;;5982511;24;20416;-65
2023/06/14 06:47:57;;;;;;;9.73;4.80;;;23.90;1.40;;;;;;5983019;24;20419;-65
2023/06/14 06:50:24;;;;;;;8.60;3.83;;;24.20;1.00;;;;;;5982547;24;20468;-65
2023/06/14 06:52:54;;;;;;;6.70;3.80;;;24.30;1.00;;;;;;5978562;24;20416;-65
2023/06/14 06:55:21;;;;;;;7.60;4.03;;;24.30;1.00;;;;;;5981531;24;20415;-65
2023/06/14 06:57:49;;;;;;;15.20;3.60;;;24.50;1.00;;;;;;5980816;24;20420;-65
2023/06/14 07:00:17;;;;;;;8.67;4.63;;;24.80;1.00;;;;;;5981613;24;20530;-65
2023/06/14 07:02:44;;;;;;;11.60;4.03;;;24.90;1.00;;;;;;5981158;24;20419;-64
2023/06/14 07:05:11;;;;;;;9.23;4.50;;;25.20;1.00;;;;;;5980854;24;20889;-64
2023/06/14 07:07:38;;;;;;;10.40;5.23;;;25.20;1.00;;;;;;5980726;24;20801;-65
2023/06/14 07:10:07;;;;;;;10.93;4.43;;;25.60;1.00;;;;;;5980061;24;20415;-64
2023/06/14 07:12:39;;;;;;;9.83;5.23;;;25.50;1.00;;;;;;5981232;24;20852;-64
2023/06/14 07:15:07;;;;;;;9.80;3.47;;;25.60;1.00;;;;;;5981568;24;20404;-65
2023/06/14 07:17:34;;;;;;;10.10;3.40;;;25.80;1.00;;;;;;5982158;24;20751;-62
2023/06/14 07:20:11;;;;;;;8.60;4.23;;;25.90;1.00;;;;;;5981943;24;20446;-63
2023/06/14 07:22:40;;;;;;;9.63;3.73;;;26.10;1.00;;;;;;5981831;24;20459;-62
2023/06/14 07:25:09;;;;;;;8.30;3.77;;;26.50;1.00;;;;;;5990320;24;20423;-63
2023/06/14 07:27:36;;;;;;;10.20;3.90;;;26.00;1.00;;;;;;5981625;24;20928;-63
2023/06/14 07:30:04;;;;;;;9.03;4.00;;;25.80;1.00;;;;;;5982311;24;20415;-62
2023/06/14 07:32:30;;;;;;;6.90;3.37;;;26.10;1.00;;;;;;5982299;24;20491;-62
2023/06/14 07:34:57;;;;;;;8.60;3.90;;;26.20;1.00;;;;;;5981637;24;20420;-62
2023/06/14 07:37:24;;;;;;;7.90;3.63;;;26.80;1.00;;;;;;5981949;24;20425;-62
2023/06/14 07:39:51;;;;;;;8.10;3.27;;;26.80;1.00;;;;;;5981742;24;20994;-62
2023/06/14 07:42:19;;;;;;;17.20;4.80;;;26.80;1.00;;;;;;5981794;24;20451;-62
2023/06/14 07:44:46;;;;;;;7.10;2.90;;;26.90;1.00;;;;;;5981741;24;20480;-62
2023/06/14 07:47:13;;;;;;;5.63;2.63;;;26.70;1.00;;;;;;5982293;24;20415;-62
2023/06/14 07:49:40;;;;;;;6.90;2.90;;;26.90;1.00;;;;;;5982068;24;20417;-62
2023/06/14 07:52:09;;;;;;;12.73;2.93;;;27.10;1.00;;;;;;5982380;24;20408;-62
2023/06/14 07:54:36;;;;;;;6.23;3.00;;;26.90;1.00;;;;;;5981726;24;20394;-63
2023/06/14 07:57:03;;;;;;;5.50;2.50;;;26.50;1.00;;;;;;5982214;24;20682;-63
2023/06/14 07:59:31;;;;;;;6.33;2.43;;;26.20;1.00;;;;;;5981068;24;20536;-62
2023/06/14 08:01:58;;;;;;;6.40;2.33;;;26.00;1.00;;;;;;5981684;24;20458;-62
2023/06/14 08:04:24;;;;;;;9.10;2.13;;;26.50;1.00;;;;;;5981261;24;20428;-63
2023/06/14 08:06:51;;;;;;;5.70;2.10;;;26.50;1.00;;;;;;5981946;24;20901;-63
2023/06/14 08:09:18;;;;;;;5.03;1.87;;;26.60;1.00;;;;;;5981658;24;20415;-62
2023/06/14 08:11:45;;;;;;;7.33;2.07;;;26.50;1.00;;;;;;5981842;24;20457;-63
2023/06/14 08:14:12;;;;;;;8.10;2.57;;;26.70;1.00;;;;;;5981728;24;20429;-62
2023/06/14 08:16:40;;;;;;;4.93;1.90;;;26.60;1.00;;;;;;5982167;24;20518;-63
2023/06/14 08:19:10;;;;;;;5.47;2.30;;;26.20;1.00;;;;;;5981925;24;20511;-63
2023/06/14 08:21:37;;;;;;;7.10;2.10;;;26.50;1.00;;;;;;5981837;24;21007;-63
2023/06/14 08:24:04;;;;;;;6.20;2.00;;;26.40;1.00;;;;;;5981673;24;20526;-63
2023/06/14 08:26:31;;;;;;;5.10;1.60;;;26.60;1.00;;;;;;5983494;24;20487;-63
2023/06/14 08:28:59;;;;;;;5.77;2.03;;;26.90;1.00;;;;;;5983230;24;20498;-63
2023/06/14 08:31:27;;;;;;;5.07;1.77;;;26.80;1.00;;;;;;5983491;24;20458;-63
2023/06/14 08:33:55;;;;;;;5.50;1.87;;;26.70;1.00;;;;;;5983155;24;20419;-64
2023/06/14 08:36:22;;;;;;;4.53;1.50;;;26.30;1.00;;;;;;5983995;24;20420;-63
2023/06/14 08:38:49;;;;;;;4.43;1.57;;;26.30;1.00;;;;;;5983322;24;20417;-63
2023/06/14 08:41:22;;;;;;;6.00;2.10;;;26.40;1.00;;;;;;5983280;24;20931;-64
2023/06/14 08:43:49;;;;;;;5.93;1.70;;;26.10;1.00;;;;;;5983174;24;20404;-63
2023/06/14 08:46:19;;;;;;;5.10;2.10;;;25.80;1.00;;;;;;5983341;24;20424;-62
2023/06/14 08:48:48;;;;;;;7.63;1.70;;;26.30;1.00;;;;;;5983727;24;20423;-63
2023/06/14 08:51:19;;;;;;;8.07;2.07;;;26.50;1.00;;;;;;5983699;24;20745;-62
2023/06/14 08:53:47;;;;;;;4.90;1.70;;;26.20;1.00;;;;;;5983159;24;20459;-62
2023/06/14 08:56:14;;;;;;;5.40;2.07;;;26.80;1.00;;;;;;5983192;24;20420;-62
2023/06/14 08:58:45;;;;;;;5.30;1.80;;;27.30;1.00;;;;;;5983250;24;20428;-63
2023/06/14 09:01:14;;;;;;;6.10;2.63;;;27.20;1.00;;;;;;5983459;24;20432;-62
2023/06/14 09:03:41;;;;;;;7.90;2.80;;;27.70;1.00;;;;;;5982845;24;20426;-62
2023/06/14 09:06:13;;;;;;;6.30;2.50;;;27.90;1.00;;;;;;5983386;24;20419;-62
2023/06/14 09:08:43;;;;;;;6.93;2.40;;;27.70;1.00;;;;;;5983337;24;20866;-62
2023/06/14 09:11:12;;;;;;;6.50;2.40;;;27.70;1.00;;;;;;5983527;24;20732;-62
2023/06/14 09:13:39;;;;;;;6.90;2.77;;;27.80;1.00;;;;;;5991786;24;20419;-62
2023/06/14 09:16:06;;;;;;;7.60;2.23;;;28.50;1.00;;;;;;5982713;24;20419;-63
2023/06/14 09:18:37;;;;;;;5.77;2.00;;;27.90;1.00;;;;;;5984721;24;20487;-64
2023/06/14 09:21:06;;;;;;;6.67;1.70;;;28.20;1.00;;;;;;5984630;24;20475;-64
2023/06/14 09:23:37;;;;;;;7.00;1.80;;;27.50;1.00;;;;;;5984276;24;20421;-64
2023/06/14 09:26:09;;;;;;;5.43;1.87;;;27.40;1.00;;;;;;5983299;24;20412;-63
2023/06/14 09:28:36;;;;;;;7.27;2.50;;;27.10;1.00;;;;;;5982279;24;20475;-63
2023/06/14 09:31:03;;;;;;;5.53;2.00;;;27.10;1.00;;;;;;5982030;24;20452;-62
2023/06/14 09:33:31;;;;;;;5.80;2.20;;;26.70;1.00;;;;;;5982252;24;20811;-63
2023/06/14 09:35:58;;;;;;;5.27;1.90;;;27.20;1.00;;;;;;5982804;24;20418;-63
2023/06/14 09:38:26;;;;;;;7.30;2.13;;;27.70;1.00;;;;;;5982752;24;20923;-63
2023/06/14 09:40:53;;;;;;;7.07;2.10;;;27.70;1.00;;;;;;5983113;24;20578;-63
2023/06/14 09:43:22;;;;;;;8.10;3.20;;;27.80;1.00;;;;;;5982206;24;20482;-63
2023/06/14 09:45:49;;;;;;;7.00;2.70;;;28.00;1.00;;;;;;5982985;24;20408;-63
2023/06/14 09:48:17;;;;;;;6.10;1.80;;;27.80;1.00;;;;;;5982508;24;20421;-63
2023/06/14 09:50:47;;;;;;;5.40;2.20;;;27.50;1.00;;;;;;5982940;24;20444;-63
2023/06/14 09:53:15;;;;;;;4.93;2.00;;;27.10;1.00;;;;;;5982021;24;20882;-64
2023/06/14 09:55:42;;;;;;;6.73;2.10;;;27.70;1.00;;;;;;5983047;24;20429;-63
2023/06/14 09:58:11;;;;;;;5.23;2.27;;;27.90;1.00;;;;;;5982266;24;20476;-62
2023/06/14 10:00:43;;;;;;;6.00;1.70;;;28.00;1.00;;;;;;5982907;24;20462;-62
2023/06/14 10:03:14;;;;;;;7.97;2.10;;;27.90;1.00;;;;;;5982483;24;20781;-64
2023/06/14 10:05:45;;;;;;;6.57;2.60;;;27.50;1.00;;;;;;5983005;24;20486;-62
2023/06/14 10:08:16;;;;;;;6.57;2.10;;;27.30;1.00;;;;;;5982690;24;20480;-63
2023/06/14 10:10:44;;;;;;;4.90;1.80;;;27.00;1.00;;;;;;5982515;24;20434;-63
2023/06/14 10:13:12;;;;;;;4.90;1.93;;;26.60;1.00;;;;;;5982311;24;20471;-62
2023/06/14 10:15:49;;;;;;;5.60;2.23;;;27.20;1.00;;;;;;5982538;24;20398;-64
2023/06/14 10:18:22;;;;;;;6.70;2.10;;;27.60;1.00;;;;;;5982446;24;20414;-63
2023/06/14 10:20:56;;;;;;;9.73;2.20;;;27.90;1.00;;;;;;5982858;24;20462;-63
2023/06/14 10:23:25;;;;;;;4.63;1.87;;;27.70;1.00;;;;;;5982274;24;20407;-64
2023/06/14 10:25:56;;;;;;;5.57;2.00;;;28.00;1.00;;;;;;5982308;24;20976;-64
2023/06/14 10:28:24;;;;;;;6.40;1.70;;;28.00;1.00;;;;;;5982649;24;20407;-64
2023/06/14 10:31:16;;;;;;;6.20;2.00;;;28.10;1.00;;;;;;5982691;24;20419;-63
2023/06/14 10:33:50;;;;;;;5.60;2.07;;;27.70;1.00;;;;;;5978593;24;20422;-64
2023/06/14 10:36:30;;;;;;;8.00;2.03;;;27.50;1.00;;;;;;5982602;24;20933;-63
2023/06/14 10:39:02;;;;;;;6.30;1.70;;;27.80;1.00;;;;;;5983912;24;20410;-64
2023/06/14 10:41:29;;;;;;;6.00;1.90;;;27.40;1.00;;;;;;5983557;24;20418;-63
2023/06/14 10:44:33;;;;;;;8.23;2.17;;;28.10;1.00;;;;;;5984104;24;20419;-64
2023/06/14 10:47:07;;;;;;;7.83;2.10;;;28.10;1.00;;;;;;5955329;24;20396;-62
2023/06/14 10:49:42;;;;;;;5.77;1.80;;;26.90;1.00;;;;;;5980927;24;20457;-63
2023/06/14 10:52:16;;;;;;;5.57;2.20;;;27.40;1.00;;;;;;5980486;24;20393;-64
2023/06/14 10:54:57;;;;;;;7.50;2.13;;;28.10;1.00;;;;;;5980394;24;20425;-68
2023/06/14 10:57:24;;;;;;;4.80;1.60;;;26.20;1.00;;;;;;5981006;24;20378;-63
2023/06/14 10:59:51;;;;;;;6.17;2.80;;;26.40;1.00;;;;;;5980963;24;20890;-63
2023/06/14 11:02:45;;;;;;;7.80;2.40;;;26.70;1.00;;;;;;5981530;24;20401;-64
2023/06/14 11:05:16;;;;;;;5.50;2.40;;;28.20;1.00;;;;;;5980358;24;20415;-64
2023/06/14 11:07:55;;;;;;;6.40;2.30;;;29.10;1.00;;;;;;5981084;24;20419;-63
2023/06/14 11:10:33;;;;;;;6.30;1.90;;;28.90;1.00;;;;;;5979786;24;20565;-63
2023/06/14 11:13:03;;;;;;;5.40;2.10;;;29.40;1.00;;;;;;5980638;24;20403;-64
2023/06/14 11:15:31;;;;;;;5.73;2.10;;;28.90;1.00;;;;;;5980900;24;20741;-63
2023/06/14 11:18:02;;;;;;;6.20;1.87;;;28.80;1.00;;;;;;5980591;24;20889;-63
2023/06/14 11:20:33;;;;;;;6.10;2.50;;;28.60;1.00;;;;;;5980115;24;20425;-64
2023/06/14 11:23:00;;;;;;;5.10;2.33;;;27.90;1.00;;;;;;5979699;24;20163;-63
2023/06/14 11:25:28;;;;;;;5.97;2.40;;;28.20;1.00;;;;;;5980964;24;20510;-63
2023/06/14 11:27:56;;;;;;;8.10;2.70;;;29.10;1.00;;;;;;5980313;24;20727;-64
2023/06/14 11:30:25;;;;;;;5.67;2.10;;;29.70;1.00;;;;;;5981900;24;20798;-64
2023/06/14 11:32:54;;;;;;;10.30;2.70;;;30.40;1.00;;;;;;5981256;24;20394;-64
2023/06/14 11:35:23;;;;;;;5.20;2.70;;;29.40;1.00;;;;;;5982086;24;20420;-64
2023/06/14 11:37:55;;;;;;;5.10;1.93;;;30.20;1.00;;;;;;5982032;24;20425;-64
2023/06/14 11:40:24;;;;;;;5.40;2.50;;;31.20;1.00;;;;;;5982265;24;20537;-64
2023/06/14 11:43:00;;;;;;;6.20;2.50;;;31.90;1.00;;;;;;5981485;24;20412;-63
2023/06/14 11:45:27;;;;;;;8.83;2.63;;;31.00;1.00;;;;;;5982089;24;20166;-64
2023/06/14 11:47:57;;;;;;;5.83;2.23;;;31.40;1.00;;;;;;5982025;24;20423;-64
2023/06/14 11:50:26;;;;;;;7.53;2.53;;;29.30;1.00;;;;;;5981971;24;20477;-64
2023/06/14 11:52:54;;;;;;;5.90;2.13;;;29.70;1.00;;;;;;5981482;24;20502;-64
2023/06/14 11:55:21;;;;;;;5.50;2.23;;;29.80;1.00;;;;;;5982310;24;20446;-64
2023/06/14 11:57:48;;;;;;;8.90;2.50;;;29.40;1.00;;;;;;5981721;24;20419;-64
2023/06/14 12:00:17;;;;;;;5.43;1.70;;;29.50;1.00;;;;;;5983276;24;20439;-64
2023/06/14 12:02:53;;;;;;;5.47;2.50;;;30.40;1.00;;;;;;5983248;24;20494;-65
2023/06/14 12:05:22;;;;;;;6.97;2.00;;;30.40;1.00;;;;;;5984035;24;20387;-65
2023/06/14 12:07:53;;;;;;;11.17;2.77;;;30.70;1.00;;;;;;5983834;24;20419;-64
2023/06/14 12:10:20;;;;;;;5.10;2.43;;;31.40;1.00;;;;;;5983871;24;20847;-65
2023/06/14 12:12:47;;;;;;;9.03;2.33;;;30.80;1.00;;;;;;5983768;24;20423;-65
2023/06/14 12:15:14;;;;;;;7.13;2.57;;;31.20;1.00;;;;;;5984211;24;20443;-65
2023/06/14 12:17:43;;;;;;;5.63;2.00;;;32.70;1.00;;;;;;5983329;24;20430;-63
2023/06/14 12:20:13;;;;;;;5.07;1.97;;;31.20;1.00;;;;;;5983152;24;20401;-64
2023/06/14 12:22:40;;;;;;;5.70;2.10;;;30.10;1.00;;;;;;5983395;24;20419;-65
2023/06/14 12:25:09;;;;;;;5.17;1.60;;;30.30;1.00;;;;;;5983077;24;20427;-64
2023/06/14 12:27:38;;;;;;;4.50;1.70;;;30.00;1.00;;;;;;5983680;24;20572;-64
2023/06/14 12:30:07;;;;;;;6.30;1.93;;;29.80;1.00;;;;;;5983655;24;20501;-64
2023/06/14 12:32:34;;;;;;;5.73;2.00;;;29.20;1.00;;;;;;5983313;24;20419;-65
2023/06/14 12:35:01;;;;;;;5.33;2.60;;;31.40;1.00;;;;;;5983369;24;20772;-64
2023/06/14 12:37:29;;;;;;;5.40;1.87;;;30.10;1.00;;;;;;5983350;24;20999;-65
2023/06/14 12:39:59;;;;;;;5.20;2.20;;;29.50;1.00;;;;;;5983593;24;20420;-64
2023/06/14 12:42:30;;;;;;;8.03;1.90;;;29.20;1.00;;;;;;5983805;24;20432;-64
2023/06/14 12:44:57;;;;;;;7.90;1.70;;;30.10;1.00;;;;;;5983220;24;20503;-65
2023/06/14 12:47:24;;;;;;;4.83;1.53;;;30.10;1.00;;;;;;5983396;24;20486;-64
2023/06/14 12:49:51;;;;;;;5.20;1.67;;;30.70;1.00;;;;;;5983152;24;20394;-63